Česky Dansk Deutsch English Español Suomi Français Magyar Italiano Nederlands norsk Polski Português svenska Türkçe

 

Weather

Eindhoven (Netherlands)

12:55, 23 August 2016 (GMT)

NWNNE
WE
SWSSE
Home            
Eindhoven Weelde Military Volkel Kleine Brogel Gilze-Rijen Niederrhein Laarbruch Schaffen Brueggen Genk Maastricht Airport Zuid Limburg Brasschaat Kalkar Geilenkirchen Antwerpen / Deurne Sint-Truiden De Bilt Woensdrecht Deelen Soesterberg Monchengladbach Goetsenhoven Rotterdam Airport Zestienhoven

To put a weather button on your web site or blog, copy the code below and paste it into your page . The first box contains HTML code, the second UBB code.


Add to Google

Details

Wind speed:2 bf, 6 kn, 3.1 m/s, 6.9 miles/h, 11.1 km/h
Wind direction:SSE, 150° - W, 260°
Visibility:Greater than 10000 m, 10 km, 32800 ft, 6.2 miles
Clouds:A few clouds at 11000 ft, 3353 m
CAVOC
Temperature:28°C, 82°F
Feels like:28°C, 82°F
Dew-point:16°C, 61°F
Atmospheric pressure:1025 hPa, 768.8 mmHg, 30.27 inHg, 1.012 atm
Relative humidity:48.1 %
METAR:EHEH 231255Z AUTO 15003KT 150V260 9999 FEW110 28/16 Q1025 BLU 18006KT CAVOK

Shortcuts

An up-to-date overview of weather conditions all over the world. Add locations with the plus (+) sign. These shortcuts can be added to Google.

Lid van de Technetium groep

website free tracking
StatCounter NetStat W3C Validator

17-12-2017 04:49:08
astro.technetium.be money.technetium.be phote.technetium.be tafeltennistafel.technetium.be www.ligfiets.net